Denver, CO

7:55 AM MDT on September 29, 2016 (GMT -0600)
Geography and Env. Sciences, CU Denver | | Change Station

Elev 5225 ft 39.75 °N, 105.00 °W | Updated 9 seconds ago

Partly Cloudy
Partly Cloudy
52.9 °F
Feels Like 52.9 °F
N
0.0
Wind Variable Wind from ESE
Gusts 0.0 mph

Today
High -- | Low -- °F
--% Chance of Precip.
Yesterday
High -- | Low -- °F
Precip. -- in
Pressure 30.25 in
Visibility 10.0 miles
Clouds Few 12000 ft
Few 20000 ft
Dew Point 38 °F
Humidity 58%
Rainfall 0.00 in
Snow Depth Not available.
6:54 AM 6:44 PM
Waning Crescent, 2% visible
METAR KAPA 291353Z 00000KT 10SM FEW120 FEW200 12/02 A3038 RMK AO2 SLP242 T01220022
Pressure 30.25 in
Visibility 10.0 miles
Clouds Few 12000 ft
Few 20000 ft
Dew Point 38 °F
Humidity 58%
Rainfall 0.00 in
Snow Depth Not available.
6:54 AM 6:44 PM
Waning Crescent, 2% visible
METAR KAPA 291353Z 00000KT 10SM FEW120 FEW200 12/02 A3038 RMK AO2 SLP242 T01220022

10-Day Weather Forecast

Almanac

Astronomy

Sep. 29, 2016 Rise Set
Actual Time
Civil Twilight
Nautical Twilight
Astronomical Twilight
Moon
Length of Visible Light
Length of Day
Tomorrow will be .
, % of the Moon is Illuminated

Today's Extremes

State Highs State Lows

Community

WunderPhotos

Upload Photos

1,942,470 photos uploaded!

WunderBlog® & News

Nearby

Air Quality

  Air Quality AQ Index Pollutant
Not available.

Snow Depth

Station Depth Elevation

Earthquake Activity

City Distance Mag. Time & Date
Minimum magnitude displayed is 2.5.

Coastal Water Temperatures

Place Temperature

Stations

Nearby Weather Stations

Station Location Temp. Windchill Dew Point Humidity Wind Precip. Elev Updated Type
                   

Watches & Warnings

There are currently no watches in effect.